KMUO/MUO METAR and TAF weather

Enter ICAO airport designator
Station Type Date Time Source
KMUO METAR 2022/12/10 00:55 UTC NOAA

KMUO 100055Z AUTO 10010KT 10SM CLR M04/M05 A3004 RMK AO2 SLP197 T10411047 $


Station Type Date Time Source
KMUO Decoded METAR 2022/12/10 00:55 UTC NOAA

Mountain Home Air Force Base, ID, United States (KMUO) 43-03N 115-52W
Dec 09, 2022 - 07:55 PM EST / 2022.12.10 0055 UTC
Wind: from the E (100 degrees) at 12 MPH (10 KT):0
Visibility: 10 mile(s):0
Sky conditions: clear
Temperature: 24.6 F (-4.1 C)
Windchill: 14 F (-10 C):1
Dew Point: 23.5 F (-4.7 C)
Relative Humidity: 95%
Pressure (altimeter): 30.04 in. Hg (1017 hPa)
ob: KMUO 100055Z AUTO 10010KT 10SM CLR M04/M05 A3004 RMK AO2 SLP197 T10411047
cycle: 1

Station Type Date Time Source
KMUO TAF 2022/12/09 18:06 UTC NOAA

TAF TAF KMUO 091800Z 0918/1024 VRB06KT 9999 FEW040 BKN060 620604 QNH3005INS
BECMG 0920/0921 VRB06KT 9999 FEW040 BKN060 620604 QNH3003INS
BECMG 1000/1001 10010G15KT 9999 FEW030 BKN050 OVC080 620505 QNH2997INS
BECMG 1005/1006 10015G25KT 9999 SCT040 BKN050 OVC080 620505 510009 QNH2986INS
BECMG 1010/1011 10015G25KT 3200 -SHSN BKN010 OVC030 610109 510009 QNH2980INS
TEMPO 1011/1015 1600 BLSN BKN005 OVC020 620109
BECMG 1015/1016 11020G30KT 9999 NSW FEW050 BKN120 520009 QNH2966INS
TEMPO 1016/1021 11025G35KT TX02/0921Z TNM02/1003Z

Example: see airport list